ENTC/TOS METAR and TAF weather

Enter ICAO airport designator
Station Type Date Time Source
ENTC METAR 2018/01/22 19:50 UTC NOAA

ENTC 221950Z 22014KT CAVOK M07/M10 Q1012 NOSIG


Station Type Date Time Source
ENTC Decoded METAR 2018/01/22 19:50 UTC NOAA

Tromso / Langnes, Norway (ENTC) 69-41N 018-55E 10M
Jan 22, 2018 - 02:50 PM EST / 2018.01.22 1950 UTC
Wind: from the SW (220 degrees) at 16 MPH (14 KT):0
Visibility: greater than 7 mile(s):0
Temperature: 19 F (-7 C)
Windchill: 5 F (-15 C):1
Dew Point: 14 F (-10 C)
Relative Humidity: 79%
Pressure (altimeter): 29.88 in. Hg (1012 hPa)
ob: ENTC 221950Z 22014KT CAVOK M07/M10 Q1012 NOSIG
cycle: 20

Station Type Date Time Source
ENTC TAF 2018/01/22 18:57 UTC NOAA

TAF ENTC 221700Z 2218/2318 20018KT 9999 SCT040 BKN060
BECMG 2222/2224 20008KT


Example: see airport list